createdAt,value
2022-08-26T00:01:00.137Z,59.15
2022-08-26T00:06:01.707Z,58.98
2022-08-26T00:11:04.289Z,59.60
2022-08-26T00:16:09.153Z,59.89
2022-08-26T00:21:13.505Z,60.29
2022-08-26T00:26:15.195Z,60.30
2022-08-26T00:31:16.990Z,60.56
2022-08-26T00:36:20.240Z,60.94
2022-08-26T00:41:22.161Z,61.16
2022-08-26T00:46:28.913Z,61.17
2022-08-26T00:51:31.434Z,61.56
2022-08-26T00:56:42.218Z,61.74
2022-08-26T01:01:44.366Z,62.09
2022-08-26T01:06:50.734Z,62.05
2022-08-26T01:11:55.740Z,62.37
2022-08-26T01:16:57.690Z,62.55
2022-08-26T01:22:05.548Z,62.83
2022-08-26T01:27:09.917Z,63.26
2022-08-26T01:32:15.970Z,63.38
2022-08-26T01:37:22.871Z,63.67
2022-08-26T01:42:27.460Z,63.22
2022-08-26T01:47:35.207Z,63.95
2022-08-26T01:52:41.332Z,64.22
2022-08-26T01:57:47.804Z,64.88
2022-08-26T02:03:11.860Z,64.92
2022-08-26T02:08:24.889Z,65.62
2022-08-26T02:13:30.245Z,66.23
2022-08-26T02:18:35.829Z,65.87
2022-08-26T02:23:43.228Z,65.75
2022-08-26T02:28:49.978Z,66.27
2022-08-26T02:33:51.746Z,66.17
2022-08-26T02:38:53.217Z,66.79
2022-08-26T02:43:57.202Z,66.56
2022-08-26T02:49:01.329Z,66.82
2022-08-26T02:54:02.987Z,67.42
2022-08-26T02:59:06.129Z,66.98
2022-08-26T03:04:10.910Z,67.58
2022-08-26T03:09:18.451Z,68.34
2022-08-26T03:14:21.197Z,68.29
2022-08-26T03:19:25.981Z,69.19
2022-08-26T03:24:27.796Z,68.48
2022-08-26T03:29:49.562Z,69.19
2022-08-26T03:34:53.006Z,69.78
2022-08-26T03:39:54.710Z,69.75
2022-08-26T03:44:57.702Z,69.81
2022-08-26T03:49:59.386Z,69.86
2022-08-26T03:55:01.331Z,69.71
2022-08-26T04:00:10.272Z,70.88
2022-08-26T04:05:17.605Z,71.05
2022-08-26T04:10:28.983Z,71.79
2022-08-26T04:15:31.026Z,71.26
2022-08-26T04:20:32.563Z,71.23
2022-08-26T04:25:34.759Z,71.51
2022-08-26T04:30:37.924Z,72.25
2022-08-26T04:35:40.142Z,72.10
2022-08-26T04:40:46.935Z,72.71
2022-08-26T04:45:50.384Z,71.86
2022-08-26T04:50:53.096Z,71.75
2022-08-26T04:55:55.238Z,71.36
2022-08-26T05:00:57.277Z,70.04
2022-08-26T05:06:00.638Z,68.35
2022-08-26T05:11:04.931Z,68.60
2022-08-26T05:16:11.655Z,68.16
2022-08-26T05:21:22.566Z,68.78
2022-08-26T05:26:28.369Z,67.67
2022-08-26T05:31:31.795Z,62.03
2022-08-26T05:36:35.566Z,56.22
2022-08-26T05:41:40.764Z,51.03
2022-08-26T05:46:44.776Z,47.79
2022-08-26T05:51:47.702Z,44.82
2022-08-26T05:56:52.337Z,40.88
2022-08-26T06:01:55.203Z,39.17
2022-08-26T06:06:57.236Z,37.41
2022-08-26T06:11:58.946Z,36.31
2022-08-26T06:17:00.847Z,34.50
2022-08-26T06:22:23.734Z,33.59
2022-08-26T06:27:27.309Z,36.60
2022-08-26T06:32:32.174Z,38.40
2022-08-26T06:37:33.726Z,35.92
2022-08-26T06:42:38.053Z,34.53
2022-08-26T06:47:44.445Z,33.19
2022-08-26T06:52:52.660Z,33.28
2022-08-26T06:57:57.007Z,35.74
2022-08-26T07:02:58.536Z,40.17
2022-08-26T07:08:00.408Z,43.71
2022-08-26T07:13:02.279Z,41.05
2022-08-26T07:18:07.255Z,40.69
2022-08-26T07:23:11.641Z,39.81
2022-08-26T07:28:13.794Z,38.78
2022-08-26T07:33:15.422Z,39.53
2022-08-26T07:38:17.017Z,38.40
2022-08-26T07:43:18.660Z,37.91
2022-08-26T07:48:23.312Z,38.73
2022-08-26T07:53:24.799Z,34.51
2022-08-26T07:58:26.481Z,35.03
2022-08-26T08:03:28.178Z,35.00
2022-08-26T08:08:32.898Z,34.69
2022-08-26T08:13:34.439Z,34.04
2022-08-26T08:18:36.018Z,30.07
2022-08-26T08:23:37.748Z,27.36
2022-08-26T08:28:39.868Z,26.26
2022-08-26T08:33:43.017Z,25.38
2022-08-26T08:38:45.125Z,25.41
2022-08-26T08:43:47.402Z,27.53
2022-08-26T08:48:58.642Z,28.63
2022-08-26T08:54:02.666Z,25.99
2022-08-26T08:59:24.591Z,27.98
2022-08-26T09:05:04.995Z,28.87
2022-08-26T09:10:15.452Z,28.30
2022-08-26T09:15:28.681Z,28.07
2022-08-26T09:20:53.217Z,26.92
2022-08-26T09:26:01.251Z,28.03
2022-08-26T09:31:13.675Z,27.40
2022-08-26T09:36:24.909Z,27.09
2022-08-26T09:41:35.451Z,27.22
2022-08-26T09:51:50.159Z,27.60
2022-08-26T09:56:52.458Z,28.27
2022-08-26T10:01:54.956Z,27.87
2022-08-26T10:07:06.412Z,28.53
2022-08-26T10:12:16.973Z,30.79
2022-08-26T10:17:34.130Z,30.61
2022-08-26T10:22:50.485Z,31.05
2022-08-26T10:28:18.087Z,30.54
2022-08-26T10:33:20.106Z,30.32
2022-08-26T10:38:31.983Z,28.62
2022-08-26T10:43:55.481Z,29.80
2022-08-26T10:49:10.511Z,28.44
2022-08-26T10:54:19.805Z,28.78
2022-08-26T10:59:37.822Z,28.76
2022-08-26T11:04:59.042Z,28.52
2022-08-26T11:10:10.339Z,28.92
2022-08-26T11:15:24.487Z,30.38
2022-08-26T11:20:47.321Z,31.57
2022-08-26T11:26:01.562Z,33.38
2022-08-26T11:31:08.714Z,33.47
2022-08-26T11:36:27.570Z,33.51
2022-08-26T11:41:31.359Z,34.26
2022-08-26T11:46:37.368Z,33.92
2022-08-26T11:51:40.848Z,33.28
2022-08-26T11:56:46.971Z,32.97
2022-08-26T12:01:51.811Z,33.34
2022-08-26T12:06:53.458Z,33.16
2022-08-26T12:12:16.449Z,32.87
2022-08-26T12:17:26.158Z,31.67
2022-08-26T12:22:40.613Z,32.08
2022-08-26T12:27:53.779Z,32.48
2022-08-26T12:33:22.161Z,31.97
2022-08-26T12:38:34.063Z,31.79
2022-08-26T12:43:44.503Z,31.65
2022-08-26T12:48:49.127Z,31.90
2022-08-26T12:53:51.175Z,32.14
2022-08-26T12:59:17.628Z,31.04
2022-08-26T13:04:40.819Z,30.51
2022-08-26T13:09:42.283Z,31.30
2022-08-26T13:14:44.632Z,31.35
2022-08-26T13:19:46.141Z,32.36
2022-08-26T13:24:48.057Z,32.75
2022-08-26T13:29:51.364Z,32.93
2022-08-26T13:34:55.014Z,33.25
2022-08-26T13:39:56.558Z,34.16
2022-08-26T13:44:59.018Z,34.21
2022-08-26T13:50:00.473Z,35.27
2022-08-26T13:55:02.111Z,34.65
2022-08-26T14:00:05.114Z,35.18
2022-08-26T14:05:07.373Z,34.78
2022-08-26T14:10:09.439Z,33.90
2022-08-26T14:15:11.835Z,33.90
2022-08-26T14:20:17.454Z,34.46
2022-08-26T14:25:19.899Z,34.98
2022-08-26T14:30:21.873Z,35.91
2022-08-26T14:35:27.676Z,36.42
2022-08-26T14:40:31.578Z,37.24
2022-08-26T14:50:43.375Z,37.54
2022-08-26T14:55:46.008Z,38.25
2022-08-26T15:00:47.921Z,38.46
2022-08-26T15:05:49.493Z,39.20
2022-08-26T15:10:51.618Z,40.66
2022-08-26T15:15:53.490Z,41.39
2022-08-26T15:20:55.743Z,41.56
2022-08-26T15:25:57.550Z,41.74
2022-08-26T15:31:00.802Z,41.71
2022-08-26T15:36:04.590Z,42.31
2022-08-26T15:41:08.676Z,42.45
2022-08-26T15:46:11.856Z,42.79
2022-08-26T15:51:26.247Z,43.93
2022-08-26T15:56:31.020Z,43.66
2022-08-26T16:01:32.767Z,44.05
2022-08-26T16:06:36.702Z,43.90
2022-08-26T16:11:38.485Z,43.82
2022-08-26T16:16:41.799Z,44.40
2022-08-26T16:21:43.317Z,44.42
2022-08-26T16:26:45.276Z,44.72
2022-08-26T16:31:47.655Z,44.43
2022-08-26T16:36:49.194Z,44.37
2022-08-26T16:41:50.668Z,45.18
2022-08-26T16:46:55.992Z,45.17
2022-08-26T16:52:00.280Z,45.45
2022-08-26T16:57:02.563Z,45.43
2022-08-26T17:02:05.073Z,45.49
2022-08-26T17:07:06.959Z,45.45
2022-08-26T17:12:08.984Z,46.35
2022-08-26T17:17:11.949Z,50.94
2022-08-26T17:22:13.480Z,54.55
2022-08-26T17:27:15.285Z,56.74
2022-08-26T17:32:16.738Z,60.83
2022-08-26T17:37:18.234Z,64.11
2022-08-26T17:42:19.869Z,67.12
2022-08-26T17:47:21.319Z,76.18
2022-08-26T17:52:23.109Z,83.52
2022-08-26T17:57:26.130Z,93.11
2022-08-26T18:07:33.509Z,93.58
2022-08-26T18:12:43.239Z,100.00
2022-08-26T18:17:44.826Z,99.09
2022-08-26T18:22:47.793Z,93.37
2022-08-26T18:27:49.439Z,92.31
2022-08-26T18:32:52.084Z,90.21
2022-08-26T18:37:53.872Z,89.76
2022-08-26T18:42:55.342Z,88.97
2022-08-26T18:47:57.396Z,88.63
2022-08-26T18:52:58.821Z,87.81
2022-08-26T18:58:00.281Z,89.02
2022-08-26T19:03:01.829Z,89.04
2022-08-26T19:08:03.514Z,93.65
2022-08-26T19:13:09.632Z,96.24
2022-08-26T19:18:14.443Z,95.67
2022-08-26T19:23:30.997Z,93.96
2022-08-26T19:28:34.245Z,92.86
2022-08-26T19:33:37.992Z,92.58
2022-08-26T19:38:39.485Z,91.96
2022-08-26T19:43:41.613Z,90.97
2022-08-26T19:48:44.409Z,91.33
2022-08-26T19:53:47.946Z,91.28
2022-08-26T19:58:50.643Z,91.57
2022-08-26T20:03:52.459Z,91.09
2022-08-26T20:08:54.097Z,90.06
2022-08-26T20:13:59.043Z,89.94
2022-08-26T20:19:18.813Z,90.19
2022-08-26T20:24:21.090Z,89.20
2022-08-26T20:29:22.623Z,90.52
2022-08-26T20:34:24.636Z,92.67
2022-08-26T20:39:29.509Z,93.11
2022-08-26T20:44:30.939Z,92.91
2022-08-26T20:49:32.437Z,92.93
2022-08-26T20:54:36.390Z,93.72
2022-08-26T20:59:37.847Z,93.56
2022-08-26T21:04:40.424Z,94.71
2022-08-26T21:09:42.013Z,95.48
2022-08-26T21:14:47.725Z,96.85
2022-08-26T21:19:51.217Z,97.57
2022-08-26T21:24:52.672Z,99.50
2022-08-26T21:29:55.635Z,99.35
2022-08-26T21:34:59.169Z,99.18
2022-08-26T21:40:05.228Z,99.31
2022-08-26T21:45:07.419Z,100.00
2022-08-26T21:50:09.229Z,100.00
2022-08-26T21:55:11.769Z,100.00
2022-08-26T22:00:15.744Z,100.00
2022-08-26T22:05:17.253Z,100.00
2022-08-26T22:10:18.862Z,100.00
2022-08-26T22:15:23.178Z,100.00
2022-08-26T22:20:24.703Z,100.00
2022-08-26T22:25:26.827Z,100.00
2022-08-26T22:30:28.469Z,99.14
2022-08-26T22:35:30.979Z,98.70
2022-08-26T22:40:33.831Z,98.59
2022-08-26T22:45:44.148Z,98.68
2022-08-26T22:50:47.443Z,98.83
2022-08-26T22:55:49.470Z,99.10
2022-08-26T23:00:50.969Z,99.59
2022-08-26T23:05:56.056Z,99.00
2022-08-26T23:10:57.508Z,98.66
2022-08-26T23:16:03.932Z,98.37
2022-08-26T23:21:06.198Z,98.82
2022-08-26T23:26:08.294Z,98.59
2022-08-26T23:31:09.755Z,98.85
2022-08-26T23:36:14.619Z,99.57
2022-08-26T23:41:22.327Z,99.92
2022-08-26T23:46:23.817Z,99.38
2022-08-26T23:51:44.271Z,99.14
2022-08-26T23:56:47.557Z,99.57
